Time;durP1;ratioP1;P1;durP2;ratioP2;P2;SDS_P1;SDS_P2;PMS_P1;PMS_P2;Temp;Humidity;BMP_temperature;BMP_pressure;BME280_temperature;BME280_humidity;BME280_pressure;Samples;Min_cycle;Max_cycle;Signal;HPM_P1;HPM_P2
2021/10/03 00:01:34;;;;;;;4.95;3.58;;;;;;;;;;4956977;29;20058;-68
2021/10/03 00:04:01;;;;;;;6.28;3.92;;;;;;;;;;4956965;29;20058;-68
2021/10/03 00:06:28;;;;;;;4.43;3.33;;;;;;;;;;4924197;29;20051;-68
2021/10/03 00:08:54;;;;;;;5.47;3.38;;;;;;;;;;4939781;29;20055;-68
2021/10/03 00:11:21;;;;;;;4.75;3.53;;;;;;;;;;4956688;29;20468;-68
2021/10/03 00:13:48;;;;;;;4.65;3.63;;;;;;;;;;4961421;28;20082;-68
2021/10/03 00:16:15;;;;;;;3.75;3.20;;;;;;;;;;4975763;28;20105;-68
2021/10/03 00:18:42;;;;;;;4.15;3.17;;;;;;;;;;4976097;28;20082;-68
2021/10/03 00:21:10;;;;;;;4.88;3.40;;;;;;;;;;4958995;28;20065;-67
2021/10/03 00:23:38;;;;;;;3.75;3.30;;;;;;;;;;4958769;28;20512;-67
2021/10/03 00:26:06;;;;;;;4.55;3.47;;;;;;;;;;4975958;28;20074;-68
2021/10/03 00:28:32;;;;;;;5.07;3.50;;;;;;;;;;4975769;28;20457;-68
2021/10/03 00:30:59;;;;;;;4.00;3.55;;;;;;;;;;4958626;28;20047;-68
2021/10/03 00:33:27;;;;;;;4.70;2.97;;;;;;;;;;4958485;28;20062;-68
2021/10/03 00:35:53;;;;;;;4.68;3.22;;;;;;;;;;4976042;28;20046;-68
2021/10/03 00:38:20;;;;;;;4.07;2.97;;;;;;;;;;4975575;28;20058;-68
2021/10/03 00:40:47;;;;;;;3.35;3.03;;;;;;;;;;4975594;28;20465;-68
2021/10/03 00:43:14;;;;;;;4.57;3.03;;;;;;;;;;4958243;28;20050;-69
2021/10/03 00:45:42;;;;;;;4.10;3.28;;;;;;;;;;4975596;28;20054;-68
2021/10/03 00:48:08;;;;;;;5.82;2.75;;;;;;;;;;4975477;28;20050;-69
2021/10/03 00:50:36;;;;;;;4.25;3.50;;;;;;;;;;4974729;28;20059;-69
2021/10/03 00:53:03;;;;;;;5.43;3.63;;;;;;;;;;4975243;28;20055;-69
2021/10/03 00:55:30;;;;;;;5.68;3.72;;;;;;;;;;4975471;28;20454;-70
2021/10/03 00:57:57;;;;;;;5.15;3.33;;;;;;;;;;4975208;28;20050;-69
2021/10/03 01:00:25;;;;;;;4.60;3.42;;;;;;;;;;4958014;28;20058;-69
2021/10/03 01:02:53;;;;;;;6.53;4.90;;;;;;;;;;4975051;28;20084;-70
2021/10/03 01:05:20;;;;;;;6.70;4.80;;;;;;;;;;4975450;28;20054;-69
2021/10/03 01:07:46;;;;;;;9.18;4.90;;;;;;;;;;4975008;28;20051;-68
2021/10/03 01:10:19;;;;;;;4.45;4.03;;;;;;;;;;4975134;28;20109;-70
2021/10/03 01:12:47;;;;;;;5.28;3.90;;;;;;;;;;4974928;28;20050;-70
2021/10/03 01:15:15;;;;;;;4.85;4.00;;;;;;;;;;4974945;28;20059;-70
2021/10/03 01:17:41;;;;;;;6.03;4.40;;;;;;;;;;4975206;28;20046;-69
2021/10/03 01:20:08;;;;;;;4.80;3.63;;;;;;;;;;4975544;28;20421;-70
2021/10/03 01:22:36;;;;;;;4.88;3.65;;;;;;;;;;4974927;28;20490;-69
2021/10/03 01:25:05;;;;;;;4.82;3.50;;;;;;;;;;4957867;28;20113;-69
2021/10/03 01:27:32;;;;;;;7.10;3.67;;;;;;;;;;4942077;28;20047;-69
2021/10/03 01:29:59;;;;;;;4.72;3.80;;;;;;;;;;4941949;28;20054;-69
2021/10/03 01:32:25;;;;;;;5.28;3.95;;;;;;;;;;4974447;28;20059;-69
2021/10/03 01:34:52;;;;;;;7.03;4.40;;;;;;;;;;4971522;28;20050;-69
2021/10/03 01:37:22;;;;;;;5.00;3.70;;;;;;;;;;4964976;28;20503;-70
2021/10/03 01:39:50;;;;;;;4.93;4.03;;;;;;;;;;4955349;29;20059;-70
2021/10/03 01:42:16;;;;;;;6.90;4.22;;;;;;;;;;4954886;29;20055;-70
2021/10/03 01:44:43;;;;;;;4.47;3.47;;;;;;;;;;4955132;29;20051;-69
2021/10/03 01:47:09;;;;;;;5.45;3.78;;;;;;;;;;4955071;29;20051;-69
2021/10/03 01:49:36;;;;;;;4.35;3.92;;;;;;;;;;4955339;28;20471;-69
2021/10/03 01:52:03;;;;;;;5.53;3.40;;;;;;;;;;4954928;29;20105;-70
2021/10/03 01:54:30;;;;;;;4.45;3.20;;;;;;;;;;4954968;29;20110;-69
2021/10/03 01:56:56;;;;;;;4.95;3.50;;;;;;;;;;4954879;29;20491;-70
2021/10/03 01:59:23;;;;;;;4.55;3.00;;;;;;;;;;4954125;29;20051;-71
2021/10/03 02:01:49;;;;;;;3.40;3.10;;;;;;;;;;4959373;28;20105;-69
2021/10/03 02:04:22;;;;;;;5.18;3.80;;;;;;;;;;4973910;28;20058;-69
2021/10/03 02:06:50;;;;;;;3.47;2.78;;;;;;;;;;4973744;28;20531;-69
2021/10/03 02:09:18;;;;;;;3.47;2.70;;;;;;;;;;4973737;28;20473;-69
2021/10/03 02:11:50;;;;;;;3.67;3.15;;;;;;;;;;4973768;28;20098;-69
2021/10/03 02:14:18;;;;;;;4.90;3.28;;;;;;;;;;4971528;28;20051;-70
2021/10/03 02:16:45;;;;;;;5.72;3.55;;;;;;;;;;4955202;29;20102;-71
2021/10/03 02:19:12;;;;;;;3.97;3.47;;;;;;;;;;4954588;29;20089;-69
2021/10/03 02:21:39;;;;;;;4.50;2.80;;;;;;;;;;4954416;29;20098;-69
2021/10/03 02:24:06;;;;;;;3.22;2.85;;;;;;;;;;4954561;29;20051;-70
2021/10/03 02:26:34;;;;;;;5.07;3.15;;;;;;;;;;4954731;29;20051;-70
2021/10/03 02:29:00;;;;;;;3.88;2.67;;;;;;;;;;4960477;28;20498;-69
2021/10/03 02:31:27;;;;;;;4.05;2.95;;;;;;;;;;4973516;28;20046;-69
2021/10/03 02:33:53;;;;;;;3.60;2.85;;;;;;;;;;4973596;28;20445;-70
2021/10/03 02:36:21;;;;;;;4.45;2.72;;;;;;;;;;4973478;28;20097;-69
2021/10/03 02:38:49;;;;;;;4.68;2.83;;;;;;;;;;4973827;28;20062;-70
2021/10/03 02:41:16;;;;;;;3.42;2.90;;;;;;;;;;4973279;28;20105;-70
2021/10/03 02:43:45;;;;;;;3.05;2.75;;;;;;;;;;4956195;28;20101;-69
2021/10/03 02:46:12;;;;;;;4.82;2.70;;;;;;;;;;4973323;28;20109;-70
2021/10/03 02:48:40;;;;;;;3.15;2.55;;;;;;;;;;4973470;28;20417;-70
2021/10/03 02:51:07;;;;;;;3.83;2.67;;;;;;;;;;4973652;28;20051;-70
2021/10/03 02:53:33;;;;;;;3.03;2.72;;;;;;;;;;4973460;28;20059;-70
2021/10/03 02:56:00;;;;;;;3.63;2.83;;;;;;;;;;4966800;28;20075;-69
2021/10/03 02:58:27;;;;;;;2.95;2.67;;;;;;;;;;4953749;29;20051;-70
2021/10/03 03:00:54;;;;;;;3.15;2.60;;;;;;;;;;4953983;29;20059;-70
2021/10/03 03:03:21;;;;;;;2.95;2.60;;;;;;;;;;4953739;29;20524;-70
2021/10/03 03:05:48;;;;;;;3.83;3.30;;;;;;;;;;4953817;29;20059;-69
2021/10/03 03:08:15;;;;;;;3.97;2.90;;;;;;;;;;4953546;29;20047;-70
2021/10/03 03:10:42;;;;;;;3.53;2.78;;;;;;;;;;4953678;29;20474;-70
2021/10/03 03:13:08;;;;;;;3.40;2.95;;;;;;;;;;4952252;28;20084;-71
2021/10/03 03:15:35;;;;;;;3.50;2.47;;;;;;;;;;4953637;29;20050;-70
2021/10/03 03:18:02;;;;;;;3.65;2.90;;;;;;;;;;4953599;29;20093;-70
2021/10/03 03:20:29;;;;;;;3.50;2.85;;;;;;;;;;4975072;23;20529;-67
2021/10/03 03:22:55;;;;;;;4.20;2.83;;;;;;;;;;5011723;28;20050;-66
2021/10/03 03:25:22;;;;;;;3.55;2.40;;;;;;;;;;5011820;28;20053;-68
2021/10/03 03:27:48;;;;;;;2.85;2.47;;;;;;;;;;5012170;28;20054;-67
2021/10/03 03:30:15;;;;;;;4.70;2.97;;;;;;;;;;5012031;28;20046;-66
2021/10/03 03:32:42;;;;;;;3.42;2.78;;;;;;;;;;5011966;28;20121;-67
2021/10/03 03:35:09;;;;;;;3.97;2.92;;;;;;;;;;5011756;28;20081;-67
2021/10/03 03:37:36;;;;;;;5.30;3.33;;;;;;;;;;5011882;28;20100;-66
2021/10/03 03:40:04;;;;;;;3.70;2.50;;;;;;;;;;5011681;28;20124;-67
2021/10/03 03:42:31;;;;;;;4.53;2.90;;;;;;;;;;5011800;28;20054;-66
2021/10/03 03:44:57;;;;;;;3.58;3.15;;;;;;;;;;5011798;28;20084;-67
2021/10/03 03:47:24;;;;;;;4.10;2.58;;;;;;;;;;5011689;28;20100;-67
2021/10/03 03:49:51;;;;;;;3.45;3.03;;;;;;;;;;5011618;28;20049;-66
2021/10/03 03:52:19;;;;;;;3.70;3.22;;;;;;;;;;5011405;28;20049;-66
2021/10/03 03:54:45;;;;;;;3.10;2.58;;;;;;;;;;5011799;28;20050;-66
2021/10/03 03:57:13;;;;;;;3.20;2.78;;;;;;;;;;5011597;28;20045;-67
2021/10/03 03:59:39;;;;;;;2.90;2.60;;;;;;;;;;5011797;28;20096;-66
2021/10/03 04:02:06;;;;;;;3.28;2.97;;;;;;;;;;5011468;28;20386;-66
2021/10/03 04:04:33;;;;;;;2.65;2.42;;;;;;;;;;5011425;28;20535;-67
2021/10/03 04:07:03;;;;;;;3.83;3.15;;;;;;;;;;5011404;28;20050;-66
2021/10/03 04:09:31;;;;;;;3.25;2.95;;;;;;;;;;4994003;28;20052;-67
2021/10/03 04:11:58;;;;;;;3.50;3.20;;;;;;;;;;5011293;28;20058;-66
2021/10/03 04:14:24;;;;;;;3.20;2.53;;;;;;;;;;5011533;28;20045;-67
2021/10/03 04:16:51;;;;;;;3.00;2.70;;;;;;;;;;5011427;28;20485;-67
2021/10/03 04:19:18;;;;;;;4.00;3.08;;;;;;;;;;5011438;28;20050;-66
2021/10/03 04:21:45;;;;;;;4.13;2.60;;;;;;;;;;5011100;28;20124;-66
2021/10/03 04:24:11;;;;;;;3.45;2.58;;;;;;;;;;5011534;28;20104;-66
2021/10/03 04:26:39;;;;;;;3.65;2.83;;;;;;;;;;5013418;28;20049;-66
2021/10/03 04:29:05;;;;;;;3.40;2.60;;;;;;;;;;5014680;28;20096;-68
2021/10/03 04:31:32;;;;;;;4.32;3.00;;;;;;;;;;5014646;28;20508;-66
2021/10/03 04:34:00;;;;;;;4.18;2.67;;;;;;;;;;5014763;28;20493;-66
2021/10/03 04:36:27;;;;;;;4.00;2.78;;;;;;;;;;5014923;28;20103;-66
2021/10/03 04:38:54;;;;;;;3.85;2.33;;;;;;;;;;5002092;28;20050;-67
2021/10/03 04:41:20;;;;;;;4.57;2.85;;;;;;;;;;4994823;28;20555;-68
2021/10/03 04:43:47;;;;;;;4.00;2.72;;;;;;;;;;4999173;28;20053;-66
2021/10/03 04:46:14;;;;;;;4.22;2.88;;;;;;;;;;5014547;28;20057;-67
2021/10/03 04:48:41;;;;;;;2.97;2.58;;;;;;;;;;5014704;28;20096;-67
2021/10/03 04:51:07;;;;;;;3.00;2.60;;;;;;;;;;5014311;28;20207;-66
2021/10/03 04:53:34;;;;;;;3.53;3.15;;;;;;;;;;5014365;28;20050;-67
2021/10/03 04:56:01;;;;;;;4.20;3.05;;;;;;;;;;5014471;28;20100;-67
2021/10/03 04:58:27;;;;;;;3.47;3.05;;;;;;;;;;5013087;28;20072;-66
2021/10/03 05:00:55;;;;;;;3.88;2.95;;;;;;;;;;5011962;28;20076;-66
2021/10/03 05:03:22;;;;;;;2.78;2.53;;;;;;;;;;5014165;28;20132;-67
2021/10/03 05:05:49;;;;;;;3.88;3.00;;;;;;;;;;5014313;28;20475;-66
2021/10/03 05:08:15;;;;;;;3.35;2.60;;;;;;;;;;5008382;28;20382;-67
2021/10/03 05:10:42;;;;;;;3.83;2.50;;;;;;;;;;4994159;28;20121;-67
2021/10/03 05:13:08;;;;;;;3.53;2.33;;;;;;;;;;4994223;28;20124;-66
2021/10/03 05:15:35;;;;;;;4.68;2.33;;;;;;;;;;4994651;28;20055;-66
2021/10/03 05:18:02;;;;;;;4.65;2.63;;;;;;;;;;5000569;28;20108;-67
2021/10/03 05:20:29;;;;;;;4.00;2.80;;;;;;;;;;5001799;28;20050;-67
2021/10/03 05:22:58;;;;;;;3.53;2.55;;;;;;;;;;4998957;28;20050;-66
2021/10/03 05:25:25;;;;;;;3.03;2.65;;;;;;;;;;4985437;28;20121;-67
2021/10/03 05:27:51;;;;;;;3.63;2.20;;;;;;;;;;5005326;28;20046;-66
2021/10/03 05:30:18;;;;;;;4.07;2.53;;;;;;;;;;5002669;28;20096;-66
2021/10/03 05:32:45;;;;;;;2.63;2.38;;;;;;;;;;5008080;28;20049;-66
2021/10/03 05:35:12;;;;;;;2.45;2.20;;;;;;;;;;5013687;28;20526;-66
2021/10/03 05:37:38;;;;;;;2.85;2.58;;;;;;;;;;5013292;28;20097;-66
2021/10/03 05:40:06;;;;;;;3.75;2.47;;;;;;;;;;4996236;28;20050;-67
2021/10/03 05:42:33;;;;;;;3.05;2.55;;;;;;;;;;5013364;28;20050;-66
2021/10/03 05:44:59;;;;;;;2.88;2.40;;;;;;;;;;5005310;28;20054;-67
2021/10/03 05:47:26;;;;;;;3.53;2.63;;;;;;;;;;4993839;28;20100;-66
2021/10/03 05:49:52;;;;;;;2.28;2.00;;;;;;;;;;4993815;28;20050;-65
2021/10/03 05:52:19;;;;;;;2.75;2.40;;;;;;;;;;4993327;28;20563;-66
2021/10/03 05:54:46;;;;;;;2.92;2.40;;;;;;;;;;4993779;28;20058;-67
2021/10/03 05:57:12;;;;;;;3.78;2.70;;;;;;;;;;4993583;28;20054;-66
2021/10/03 05:59:39;;;;;;;3.30;2.85;;;;;;;;;;5004050;28;20049;-66
2021/10/03 06:02:06;;;;;;;2.88;2.35;;;;;;;;;;5012831;28;20483;-66
2021/10/03 06:04:32;;;;;;;2.85;2.40;;;;;;;;;;5013289;28;20080;-66
2021/10/03 06:06:59;;;;;;;4.55;2.60;;;;;;;;;;5013113;28;20049;-66
2021/10/03 06:09:26;;;;;;;3.15;2.55;;;;;;;;;;5012992;28;20054;-67
2021/10/03 06:11:53;;;;;;;2.67;2.38;;;;;;;;;;5012477;28;20054;-66
2021/10/03 06:14:19;;;;;;;2.70;2.25;;;;;;;;;;5013121;28;20180;-66
2021/10/03 06:16:48;;;;;;;3.50;2.38;;;;;;;;;;5012954;28;20106;-66
2021/10/03 06:19:15;;;;;;;3.28;2.72;;;;;;;;;;5011184;28;20489;-67
2021/10/03 06:21:42;;;;;;;5.35;2.25;;;;;;;;;;5012339;28;20108;-67
2021/10/03 06:24:09;;;;;;;4.18;2.05;;;;;;;;;;5012672;28;20054;-66
2021/10/03 06:26:36;;;;;;;3.55;2.55;;;;;;;;;;5012927;28;20050;-66
2021/10/03 06:29:03;;;;;;;3.40;2.20;;;;;;;;;;4995255;28;20046;-67
2021/10/03 06:31:30;;;;;;;3.60;2.40;;;;;;;;;;5012407;28;20061;-66
2021/10/03 06:33:57;;;;;;;3.53;2.20;;;;;;;;;;5003039;28;20050;-66
2021/10/03 06:36:24;;;;;;;3.25;2.40;;;;;;;;;;4992850;28;20536;-66
2021/10/03 06:38:50;;;;;;;2.50;1.90;;;;;;;;;;4992981;28;20050;-66
2021/10/03 06:41:17;;;;;;;4.53;2.40;;;;;;;;;;4992925;28;20050;-67
2021/10/03 06:43:43;;;;;;;3.80;2.03;;;;;;;;;;4992793;28;20046;-67
2021/10/03 06:46:11;;;;;;;3.00;2.08;;;;;;;;;;4993832;28;20052;-67
2021/10/03 06:48:37;;;;;;;3.00;2.38;;;;;;;;;;4994105;28;20178;-66
2021/10/03 06:51:04;;;;;;;3.10;2.08;;;;;;;;;;4992586;28;20058;-66
2021/10/03 06:53:32;;;;;;;3.53;2.22;;;;;;;;;;4992505;28;20054;-67
2021/10/03 06:55:59;;;;;;;2.60;2.20;;;;;;;;;;4992778;28;20050;-68
2021/10/03 06:58:25;;;;;;;2.28;2.08;;;;;;;;;;4992483;28;20054;-67
2021/10/03 07:00:52;;;;;;;2.80;2.35;;;;;;;;;;4992491;28;20054;-67
2021/10/03 07:03:19;;;;;;;2.25;1.90;;;;;;;;;;4989466;28;20050;-67
2021/10/03 07:05:46;;;;;;;2.17;1.98;;;;;;;;;;4990965;28;20101;-67
2021/10/03 07:08:12;;;;;;;4.03;2.53;;;;;;;;;;4990013;28;20468;-67
2021/10/03 07:10:40;;;;;;;2.80;1.90;;;;;;;;;;4990629;28;20100;-67
2021/10/03 07:13:07;;;;;;;1.98;1.80;;;;;;;;;;4990615;28;20105;-67
2021/10/03 07:15:33;;;;;;;2.67;2.47;;;;;;;;;;4996270;28;20082;-68
2021/10/03 07:18:00;;;;;;;3.22;2.05;;;;;;;;;;4990404;28;20469;-67
2021/10/03 07:20:27;;;;;;;2.35;2.00;;;;;;;;;;4990185;28;20065;-67
2021/10/03 07:22:54;;;;;;;3.42;1.83;;;;;;;;;;4990577;28;20117;-67
2021/10/03 07:25:20;;;;;;;5.68;2.70;;;;;;;;;;4990260;28;20085;-67
2021/10/03 07:27:47;;;;;;;2.63;2.10;;;;;;;;;;4988931;28;20069;-68
2021/10/03 07:30:14;;;;;;;2.20;2.00;;;;;;;;;;4990494;28;20360;-67
2021/10/03 07:32:40;;;;;;;2.15;1.95;;;;;;;;;;4990087;28;20493;-67
2021/10/03 07:35:07;;;;;;;2.17;1.92;;;;;;;;;;4990119;28;20560;-67
2021/10/03 07:37:34;;;;;;;1.98;1.73;;;;;;;;;;4990375;28;20058;-68
2021/10/03 07:40:03;;;;;;;2.58;2.13;;;;;;;;;;4990156;28;20050;-67
2021/10/03 07:42:29;;;;;;;3.03;2.35;;;;;;;;;;4989728;28;20054;-67
2021/10/03 07:44:56;;;;;;;1.90;1.70;;;;;;;;;;4990335;28;20058;-69
2021/10/03 07:47:23;;;;;;;1.90;1.80;;;;;;;;;;4990163;28;20109;-67
2021/10/03 07:49:49;;;;;;;2.50;1.73;;;;;;;;;;4990358;28;20049;-68
2021/10/03 07:52:16;;;;;;;1.95;1.75;;;;;;;;;;4990040;28;20499;-67
2021/10/03 07:54:43;;;;;;;3.35;2.17;;;;;;;;;;4989751;28;20050;-67
2021/10/03 07:57:12;;;;;;;2.53;2.03;;;;;;;;;;4997576;28;20061;-68
2021/10/03 07:59:38;;;;;;;1.92;1.67;;;;;;;;;;5010160;28;20104;-68
2021/10/03 08:02:05;;;;;;;3.13;1.80;;;;;;;;;;5013139;28;20053;-67
2021/10/03 08:04:32;;;;;;;2.00;1.80;;;;;;;;;;5013910;28;20481;-67
2021/10/03 08:06:58;;;;;;;2.03;1.83;;;;;;;;;;4996438;28;20050;-68
2021/10/03 08:09:25;;;;;;;2.45;2.03;;;;;;;;;;5013616;28;20050;-67
2021/10/03 08:11:54;;;;;;;2.70;1.95;;;;;;;;;;5013284;28;20108;-68
2021/10/03 08:14:21;;;;;;;3.15;2.15;;;;;;;;;;4999974;28;20774;-69
2021/10/03 08:16:48;;;;;;;2.53;1.73;;;;;;;;;;5002622;28;20060;-69
2021/10/03 08:19:15;;;;;;;2.20;2.00;;;;;;;;;;4993466;28;20054;-69
2021/10/03 08:21:41;;;;;;;2.78;1.95;;;;;;;;;;5005219;28;20113;-70
2021/10/03 08:24:08;;;;;;;3.95;1.98;;;;;;;;;;4990675;28;20062;-69
2021/10/03 08:26:35;;;;;;;2.22;1.95;;;;;;;;;;4999827;28;20077;-74
2021/10/03 08:29:01;;;;;;;2.33;2.10;;;;;;;;;;4982968;28;20119;-68
2021/10/03 08:31:28;;;;;;;2.70;2.15;;;;;;;;;;4999879;28;20112;-75
2021/10/03 08:33:55;;;;;;;3.10;1.88;;;;;;;;;;5001246;28;20521;-69
2021/10/03 08:36:21;;;;;;;2.35;2.03;;;;;;;;;;4999791;28;20468;-68
2021/10/03 08:38:48;;;;;;;2.05;1.77;;;;;;;;;;4997907;28;20087;-68
2021/10/03 08:41:17;;;;;;;2.60;1.90;;;;;;;;;;4999285;28;20484;-70
2021/10/03 08:43:44;;;;;;;3.75;2.05;;;;;;;;;;5001994;28;20050;-69
2021/10/03 08:46:10;;;;;;;2.42;1.60;;;;;;;;;;5003251;28;20057;-68
2021/10/03 08:48:37;;;;;;;3.45;1.70;;;;;;;;;;4999838;28;20041;-68
2021/10/03 08:51:04;;;;;;;3.00;1.92;;;;;;;;;;4997862;28;20089;-68
2021/10/03 08:53:31;;;;;;;2.60;1.80;;;;;;;;;;5001627;28;20497;-68
2021/10/03 08:55:58;;;;;;;2.95;2.10;;;;;;;;;;4997770;28;20054;-70
2021/10/03 08:58:25;;;;;;;3.08;1.80;;;;;;;;;;5003590;28;20552;-67
2021/10/03 09:00:52;;;;;;;4.18;2.78;;;;;;;;;;4990730;28;20096;-74
2021/10/03 09:03:19;;;;;;;2.60;1.67;;;;;;;;;;4997355;28;20148;-76
2021/10/03 09:05:53;;;;;;;4.30;2.05;;;;;;;;;;4976415;28;20559;-73
2021/10/03 09:08:28;;;;;;;2.00;1.80;;;;;;;;;;5002443;28;20050;-74
2021/10/03 09:11:05;;;;;;;1.95;1.60;;;;;;;;;;4986338;28;20061;-72
2021/10/03 09:13:32;;;;;;;2.15;1.73;;;;;;;;;;4999313;28;20121;-75
2021/10/03 09:16:11;;;;;;;2.33;1.58;;;;;;;;;;5002767;28;20058;-73
2021/10/03 09:18:55;;;;;;;1.95;1.75;;;;;;;;;;4999043;28;20436;-72
2021/10/03 09:21:28;;;;;;;3.17;2.05;;;;;;;;;;4989088;23;20074;-68
2021/10/03 09:24:10;;;;;;;4.38;1.95;;;;;;;;;;4946603;29;20047;-68
2021/10/03 09:26:38;;;;;;;7.80;3.05;;;;;;;;;;4943205;29;20051;-67
2021/10/03 09:29:25;;;;;;;2.15;1.92;;;;;;;;;;4940981;29;20044;-66
2021/10/03 09:32:04;;;;;;;1.50;1.40;;;;;;;;;;4940682;29;20059;-66
2021/10/03 09:34:30;;;;;;;3.83;1.95;;;;;;;;;;4943004;29;20055;-65
2021/10/03 09:36:58;;;;;;;2.25;1.88;;;;;;;;;;4940834;29;20169;-66
2021/10/03 09:39:24;;;;;;;2.42;2.00;;;;;;;;;;4943546;28;20048;-68
2021/10/03 09:41:51;;;;;;;2.70;2.10;;;;;;;;;;4940894;29;20106;-68
2021/10/03 09:44:19;;;;;;;2.80;2.05;;;;;;;;;;4939428;29;20114;-65
2021/10/03 09:46:45;;;;;;;2.00;1.80;;;;;;;;;;4939639;29;20055;-67
2021/10/03 09:49:14;;;;;;;2.00;1.60;;;;;;;;;;4939181;29;20048;-69
2021/10/03 09:51:47;;;;;;;3.08;1.63;;;;;;;;;;4945664;28;20047;-69
2021/10/03 09:54:14;;;;;;;4.80;1.80;;;;;;;;;;4942280;29;20474;-68
2021/10/03 09:56:41;;;;;;;2.65;2.00;;;;;;;;;;4941930;29;20099;-70
2021/10/03 09:59:08;;;;;;;6.30;2.03;;;;;;;;;;4943301;29;20063;-69
2021/10/03 10:01:38;;;;;;;2.33;1.80;;;;;;;;;;4937834;28;20055;-67
2021/10/03 10:04:08;;;;;;;2.60;1.58;;;;;;;;;;4941499;29;20039;-67
2021/10/03 10:06:35;;;;;;;2.85;1.85;;;;;;;;;;4943265;29;20455;-67
2021/10/03 10:09:16;;;;;;;3.10;2.35;;;;;;;;;;4944324;29;20083;-64
2021/10/03 10:11:56;;;;;;;4.13;2.05;;;;;;;;;;4921877;29;20058;-67
2021/10/03 10:14:27;;;;;;;4.00;1.70;;;;;;;;;;4920574;29;20047;-66
2021/10/03 10:16:58;;;;;;;3.40;1.73;;;;;;;;;;4936638;28;20047;-70
2021/10/03 10:19:36;;;;;;;2.05;1.85;;;;;;;;;;4943956;29;20043;-70
2021/10/03 10:22:15;;;;;;;2.63;1.85;;;;;;;;;;4935714;28;20112;-65
2021/10/03 10:25:03;;;;;;;4.30;3.20;;;;;;;;;;4940591;29;20525;-66
2021/10/03 10:27:29;;;;;;;4.57;2.65;;;;;;;;;;4941779;29;20046;-65
2021/10/03 10:30:04;;;;;;;4.07;2.70;;;;;;;;;;4940277;29;20495;-65
2021/10/03 10:32:50;;;;;;;3.53;2.45;;;;;;;;;;4942988;28;20043;-65
2021/10/03 10:35:20;;;;;;;4.80;2.10;;;;;;;;;;4940957;29;20055;-70
2021/10/03 10:37:51;;;;;;;2.67;2.30;;;;;;;;;;4940673;28;20055;-70
2021/10/03 10:40:21;;;;;;;2.15;1.88;;;;;;;;;;4942007;28;20048;-74
2021/10/03 10:43:07;;;;;;;2.70;1.85;;;;;;;;;;4942149;28;20087;-73
2021/10/03 10:45:40;;;;;;;2.75;1.85;;;;;;;;;;4939512;29;20452;-71
2021/10/03 10:48:18;;;;;;;2.30;2.00;;;;;;;;;;4939710;28;20052;-74
2021/10/03 10:50:54;;;;;;;3.08;1.80;;;;;;;;;;4959627;23;20572;-65
2021/10/03 10:53:23;;;;;;;2.92;2.00;;;;;;;;;;4978491;28;20501;-66
2021/10/03 10:56:09;;;;;;;2.95;1.80;;;;;;;;;;4979110;28;20094;-65
2021/10/03 10:58:59;;;;;;;1.98;1.80;;;;;;;;;;4977729;28;20061;-66
2021/10/03 11:01:35;;;;;;;4.22;1.77;;;;;;;;;;4977082;28;20049;-65
2021/10/03 11:04:05;;;;;;;1.85;1.70;;;;;;;;;;4977365;28;20129;-65
2021/10/03 11:06:32;;;;;;;3.90;2.05;;;;;;;;;;4975103;28;20051;-65
2021/10/03 11:09:14;;;;;;;4.07;3.13;;;;;;;;;;4979441;28;20051;-65
2021/10/03 11:11:53;;;;;;;2.97;1.98;;;;;;;;;;4975041;28;20062;-66
2021/10/03 11:14:25;;;;;;;2.22;2.03;;;;;;;;;;4974543;28;20129;-65
2021/10/03 11:17:02;;;;;;;3.33;1.85;;;;;;;;;;4976993;28;20050;-66
2021/10/03 11:19:33;;;;;;;2.55;2.05;;;;;;;;;;4976656;28;20050;-65
2021/10/03 11:22:03;;;;;;;4.95;2.00;;;;;;;;;;4974518;28;20106;-65
2021/10/03 11:24:47;;;;;;;4.15;1.77;;;;;;;;;;4979261;28;20655;-65
2021/10/03 11:27:17;;;;;;;3.60;2.08;;;;;;;;;;4977157;28;20076;-67
2021/10/03 11:29:46;;;;;;;2.05;1.85;;;;;;;;;;4975363;28;20473;-66
2021/10/03 11:32:14;;;;;;;2.50;2.13;;;;;;;;;;4979374;28;20105;-65
2021/10/03 11:35:03;;;;;;;2.08;1.88;;;;;;;;;;4975639;28;20057;-65
2021/10/03 11:37:41;;;;;;;2.03;1.77;;;;;;;;;;4979154;28;20055;-65
2021/10/03 11:40:13;;;;;;;2.00;1.75;;;;;;;;;;4980707;28;20413;-72
2021/10/03 11:42:43;;;;;;;4.03;2.10;;;;;;;;;;4986293;28;20050;-71
2021/10/03 11:45:11;;;;;;;2.80;1.90;;;;;;;;;;4982554;28;20054;-71
2021/10/03 11:47:59;;;;;;;4.78;2.35;;;;;;;;;;4985024;28;20051;-72
2021/10/03 11:50:52;;;;;;;2.30;1.80;;;;;;;;;;4951610;28;20503;-73
2021/10/03 11:53:24;;;;;;;2.70;1.85;;;;;;;;;;4964653;28;20046;-71
2021/10/03 11:59:45;;;;;;;4.10;2.55;;;;;;;;;;4866120;29;20718;-70
2021/10/03 12:02:19;;;;;;;2.65;2.15;;;;;;;;;;4883542;29;20048;-72
2021/10/03 12:04:59;;;;;;;2.95;2.30;;;;;;;;;;4884441;29;20056;-68
2021/10/03 12:07:28;;;;;;;4.45;2.13;;;;;;;;;;4911434;29;20131;-67
2021/10/03 12:10:11;;;;;;;3.53;2.10;;;;;;;;;;4914883;29;20060;-70
2021/10/03 12:12:50;;;;;;;;;;;;;;;;;;4915073;29;20103;-69
2021/10/03 12:16:18;;;;;;;3.20;1.92;;;;;;;;;;4911526;29;19930;-68
2021/10/03 12:18:50;;;;;;;3.78;2.40;;;;;;;;;;4876636;29;20065;-69
2021/10/03 12:21:43;;;;;;;3.55;2.10;;;;;;;;;;4877187;29;20085;-69
2021/10/03 12:24:12;;;;;;;3.88;2.17;;;;;;;;;;4882402;29;20055;-65
2021/10/03 12:26:52;;;;;;;3.78;2.83;;;;;;;;;;4898885;29;20132;-72
2021/10/03 12:29:24;;;;;;;3.15;2.30;;;;;;;;;;4913450;29;20048;-71
2021/10/03 12:31:58;;;;;;;3.10;2.47;;;;;;;;;;4914068;29;20548;-71
2021/10/03 12:34:30;;;;;;;2.83;2.50;;;;;;;;;;4914045;29;20135;-71
2021/10/03 12:37:21;;;;;;;5.32;2.50;;;;;;;;;;4957462;28;20058;-67
2021/10/03 12:39:58;;;;;;;;;;;;;;;;;;4982537;28;20051;-67
2021/10/03 12:42:28;;;;;;;2.45;2.25;;;;;;;;;;4977493;28;20008;-69
2021/10/03 12:45:00;;;;;;;3.28;2.90;;;;;;;;;;4952890;28;20051;-67
2021/10/03 12:47:28;;;;;;;3.25;2.42;;;;;;;;;;4978915;28;20055;-68
2021/10/03 12:49:55;;;;;;;3.85;2.95;;;;;;;;;;4963723;28;20053;-69
2021/10/03 12:52:22;;;;;;;4.95;2.47;;;;;;;;;;4981211;28;20342;-68
2021/10/03 12:54:56;;;;;;;3.35;2.65;;;;;;;;;;4959789;28;20502;-68
2021/10/03 12:57:26;;;;;;;2.33;2.13;;;;;;;;;;4981491;28;20053;-68
2021/10/03 12:59:58;;;;;;;3.38;2.42;;;;;;;;;;4980082;28;20047;-67
2021/10/03 13:02:29;;;;;;;3.10;2.30;;;;;;;;;;4966913;28;20043;-66
2021/10/03 13:05:04;;;;;;;2.88;2.35;;;;;;;;;;4983815;28;20425;-67
2021/10/03 13:07:37;;;;;;;3.15;2.45;;;;;;;;;;4980108;28;20398;-68
2021/10/03 13:10:08;;;;;;;3.08;2.70;;;;;;;;;;4963471;28;20050;-69
2021/10/03 13:12:35;;;;;;;5.28;2.80;;;;;;;;;;4963672;28;20330;-71
2021/10/03 13:15:08;;;;;;;4.47;2.78;;;;;;;;;;4980426;28;20055;-67
2021/10/03 13:17:38;;;;;;;3.00;2.45;;;;;;;;;;4983498;28;20062;-74
2021/10/03 13:20:06;;;;;;;3.47;2.22;;;;;;;;;;4947260;28;20055;-66
2021/10/03 13:22:33;;;;;;;2.92;2.53;;;;;;;;;;4980730;28;20078;-66
2021/10/03 13:25:00;;;;;;;2.92;2.15;;;;;;;;;;4979622;28;20113;-68
2021/10/03 13:27:28;;;;;;;3.08;2.65;;;;;;;;;;4980780;28;20061;-69
2021/10/03 13:29:56;;;;;;;3.15;2.78;;;;;;;;;;4947800;28;20146;-67
2021/10/03 13:32:23;;;;;;;4.82;2.90;;;;;;;;;;4980521;28;20521;-65
2021/10/03 13:34:50;;;;;;;3.20;2.85;;;;;;;;;;4980279;28;20055;-67
2021/10/03 13:37:18;;;;;;;3.03;2.50;;;;;;;;;;4979642;28;20141;-71
2021/10/03 13:39:47;;;;;;;4.35;3.20;;;;;;;;;;4981192;28;20046;-73
2021/10/03 13:42:18;;;;;;;3.28;2.97;;;;;;;;;;4963948;28;20057;-66
2021/10/03 13:44:52;;;;;;;4.60;2.67;;;;;;;;;;4981067;28;20042;-66
2021/10/03 13:47:21;;;;;;;3.20;2.85;;;;;;;;;;4980795;28;20066;-69
2021/10/03 13:49:49;;;;;;;3.70;2.70;;;;;;;;;;4980655;28;20477;-70
2021/10/03 13:52:17;;;;;;;5.50;2.75;;;;;;;;;;4925588;28;20054;-69
2021/10/03 13:54:44;;;;;;;3.88;2.72;;;;;;;;;;4961605;28;20134;-69
2021/10/03 13:57:11;;;;;;;4.43;3.03;;;;;;;;;;4980447;28;20141;-71
2021/10/03 13:59:39;;;;;;;5.70;2.97;;;;;;;;;;4950187;28;20050;-70
2021/10/03 14:02:06;;;;;;;4.00;2.67;;;;;;;;;;4982454;28;20046;-70
2021/10/03 14:04:36;;;;;;;7.50;3.20;;;;;;;;;;4946696;28;20051;-72
2021/10/03 14:07:06;;;;;;;3.75;3.00;;;;;;;;;;4980519;28;20516;-74
2021/10/03 14:09:34;;;;;;;4.95;3.47;;;;;;;;;;4973902;28;20502;-73
2021/10/03 14:12:01;;;;;;;4.72;3.10;;;;;;;;;;4983572;28;20061;-71
2021/10/03 14:14:30;;;;;;;4.70;3.75;;;;;;;;;;4942334;28;20086;-73
2021/10/03 14:16:57;;;;;;;4.85;3.20;;;;;;;;;;4946507;28;20054;-72
2021/10/03 14:19:26;;;;;;;4.38;2.95;;;;;;;;;;4980115;28;20050;-74
2021/10/03 14:21:53;;;;;;;4.65;2.83;;;;;;;;;;4979765;28;20414;-71
2021/10/03 14:24:23;;;;;;;4.60;3.20;;;;;;;;;;4982143;28;20719;-69
2021/10/03 14:26:51;;;;;;;7.22;3.00;;;;;;;;;;4977137;28;20138;-70
2021/10/03 14:29:18;;;;;;;7.40;3.47;;;;;;;;;;4948975;28;20134;-67
2021/10/03 14:31:45;;;;;;;5.88;3.53;;;;;;;;;;4981979;28;20059;-69
2021/10/03 14:34:16;;;;;;;6.88;4.03;;;;;;;;;;4977943;28;20074;-67
2021/10/03 14:36:43;;;;;;;6.00;3.53;;;;;;;;;;4961480;28;20046;-70
2021/10/03 14:39:13;;;;;;;5.57;3.58;;;;;;;;;;4961560;28;20097;-69
2021/10/03 14:41:41;;;;;;;4.25;3.53;;;;;;;;;;4979679;28;20541;-70
2021/10/03 14:44:09;;;;;;;5.20;3.33;;;;;;;;;;4977173;28;20055;-67
2021/10/03 14:46:38;;;;;;;3.35;2.95;;;;;;;;;;4981843;28;20046;-70
2021/10/03 14:49:05;;;;;;;5.75;3.20;;;;;;;;;;4977936;28;20505;-70
2021/10/03 14:51:32;;;;;;;4.85;3.55;;;;;;;;;;4979394;28;20077;-71
2021/10/03 14:54:01;;;;;;;4.28;3.40;;;;;;;;;;4977821;28;20057;-69
2021/10/03 14:56:29;;;;;;;3.92;3.45;;;;;;;;;;4979324;28;20046;-70
2021/10/03 14:58:59;;;;;;;3.42;2.97;;;;;;;;;;4959807;28;20480;-69